Baldwin, Kansas
Current Conditions -  °F | °C
As of 2:52 PM on Saturday 22 Nov 2014 (Local Time) from KLWC Reporting Station
Overcast Overcast  
Wind Chill: 58°   Ceiling: 1500
Heat Index: 58°   Visibility: 10mi
Dew Point: 54°   Wind: 16mph
Humidity: 87%   Direction: 190°S
Pressure: 29.79"   Gusts: 24mph
Location:  38.8017°N, 95.2855°W
Report Text: KLWC 222052Z AUTO 19014G21KT 10SM OVC015 14/12 A2979 RMK AO2 SLP087 T01440122 56014
Loading
Personal Weather Stations






























Interactive Weather Map New forecast layout! Learn more

10-Day Weather Forecast

Advertisements
Track Severe Weather on mobile